createdAt,value
2017-07-21T00:01:02.103Z,1010
2017-07-21T00:02:11.743Z,1010.02
2017-07-21T00:03:21.969Z,1010.05
2017-07-21T00:04:31.561Z,1010.07
2017-07-21T00:05:41.208Z,1010.05
2017-07-21T00:06:50.822Z,1010.08
2017-07-21T00:08:00.739Z,1010.07
2017-07-21T00:09:11.050Z,1010.09
2017-07-21T00:10:20.955Z,1010.06
2017-07-21T00:11:30.553Z,1010.1
2017-07-21T00:12:40.777Z,1010.11
2017-07-21T00:13:50.688Z,1010.07
2017-07-21T00:15:00.460Z,1010.1
2017-07-21T00:16:10.380Z,1010.14
2017-07-21T00:17:20.598Z,1010.09
2017-07-21T00:18:30.191Z,1010.1
2017-07-21T00:19:39.795Z,1010.07
2017-07-21T00:20:49.711Z,1010.11
2017-07-21T00:21:59.933Z,1010.16
2017-07-21T00:23:09.857Z,1010.09
2017-07-21T00:24:19.776Z,1010.07
2017-07-21T00:25:29.389Z,1010.07
2017-07-21T00:26:38.992Z,1010.11
2017-07-21T00:27:48.594Z,1010.13
2017-07-21T00:28:58.514Z,1010.13
2017-07-21T00:30:08.434Z,1010.16
2017-07-21T00:31:18.347Z,1010.13
2017-07-21T00:32:28.312Z,1010.09
2017-07-21T00:33:38.550Z,1010.14
2017-07-21T00:34:48.459Z,1010.11
2017-07-21T00:35:58.394Z,1010.15
2017-07-21T00:37:08.617Z,1010.14
2017-07-21T00:38:18.833Z,1010.16
2017-07-21T00:39:28.744Z,1010.15
2017-07-21T00:40:38.354Z,1010.17
2017-07-21T00:41:47.643Z,1010.19
2017-07-21T00:42:57.865Z,1010.2
2017-07-21T00:44:08.379Z,1010.23
2017-07-21T00:45:18.626Z,1010.23
2017-07-21T00:46:28.847Z,1010.25
2017-07-21T00:47:38.445Z,1010.22
2017-07-21T00:48:48.361Z,1010.21
2017-07-21T00:49:57.720Z,1010.22
2017-07-21T00:51:07.327Z,1010.22
2017-07-21T00:52:17.244Z,1010.21
2017-07-21T00:53:27.163Z,1010.22
2017-07-21T00:54:37.077Z,1010.23
2017-07-21T00:55:47.451Z,1010.22
2017-07-21T00:56:57.365Z,1010.22
2017-07-21T00:58:07.295Z,1010.24
2017-07-21T00:59:17.516Z,1010.23
2017-07-21T01:00:27.725Z,1010.23
2017-07-21T01:01:38.109Z,1010.21
2017-07-21T01:02:48.323Z,1010.18
2017-07-21T01:03:58.234Z,1010.23
2017-07-21T01:05:07.868Z,1010.18
2017-07-21T01:06:17.803Z,1010.22
2017-07-21T01:07:28.039Z,1010.23
2017-07-21T01:08:38.258Z,1010.24
2017-07-21T01:09:48.490Z,1010.22
2017-07-21T01:10:58.406Z,1010.25
2017-07-21T01:12:07.703Z,1010.24
2017-07-21T01:13:17.931Z,1010.28
2017-07-21T01:14:27.853Z,1010.3
2017-07-21T01:15:37.771Z,1010.27
2017-07-21T01:16:47.989Z,1010.32
2017-07-21T01:17:57.604Z,1010.28
2017-07-21T01:19:07.667Z,1010.33
2017-07-21T01:20:17.877Z,1010.3
2017-07-21T01:21:27.788Z,1010.29
2017-07-21T01:22:38.024Z,1010.29
2017-07-21T01:23:48.254Z,1010.29
2017-07-21T01:24:58.630Z,1010.28
2017-07-21T01:26:08.544Z,1010.25
2017-07-21T01:27:18.149Z,1010.25
2017-07-21T01:28:28.109Z,1010.21
2017-07-21T01:29:37.703Z,1010.22
2017-07-21T01:30:47.910Z,1010.22
2017-07-21T01:31:57.829Z,1010.24
2017-07-21T01:33:07.442Z,1010.23
2017-07-21T01:34:17.666Z,1010.21
2017-07-21T01:35:27.574Z,1010.21
2017-07-21T01:36:37.023Z,1010.26
2017-07-21T01:37:47.244Z,1010.28
2017-07-21T01:38:57.189Z,1010.3
2017-07-21T01:40:06.486Z,1010.26
2017-07-21T01:41:16.412Z,1010.28
2017-07-21T01:42:26.027Z,1010.31
2017-07-21T01:43:35.637Z,1010.31
2017-07-21T01:44:45.238Z,1010.32
2017-07-21T01:45:55.157Z,1010.33
2017-07-21T01:47:04.789Z,1010.34
2017-07-21T01:48:14.700Z,1010.34
2017-07-21T01:49:24.939Z,1010.34
2017-07-21T01:50:34.231Z,1010.29
2017-07-21T01:51:44.451Z,1010.3
2017-07-21T01:52:54.370Z,1010.28
2017-07-21T01:54:04.745Z,1010.26
2017-07-21T01:55:14.379Z,1010.22
2017-07-21T01:56:23.990Z,1010.26
2017-07-21T01:57:33.895Z,1010.22
2017-07-21T01:58:43.816Z,1010.25
2017-07-21T01:59:53.872Z,1010.22
2017-07-21T02:01:03.185Z,1010.22
2017-07-21T02:02:12.797Z,1010.22
2017-07-21T02:03:22.703Z,1010.19
2017-07-21T02:04:32.630Z,1010.19
2017-07-21T02:05:43.203Z,1010.18
2017-07-21T02:06:52.804Z,1010.19
2017-07-21T02:08:03.027Z,1010.18
2017-07-21T02:09:12.932Z,1010.2
2017-07-21T02:10:22.848Z,1010.2
2017-07-21T02:11:32.517Z,1010.25
2017-07-21T02:12:42.434Z,1010.22
2017-07-21T02:13:52.049Z,1010.18
2017-07-21T02:15:01.663Z,1010.18
2017-07-21T02:16:11.890Z,1010.16
2017-07-21T02:17:22.131Z,1010.18
2017-07-21T02:18:32.041Z,1010.16
2017-07-21T02:19:41.956Z,1010.17
2017-07-21T02:20:51.866Z,1010.16
2017-07-21T02:22:01.474Z,1010.16
2017-07-21T02:23:11.549Z,1010.12
2017-07-21T02:24:20.847Z,1010.13
2017-07-21T02:25:30.464Z,1010.11
2017-07-21T02:26:40.380Z,1010.08
2017-07-21T02:27:50.606Z,1010.12
2017-07-21T02:29:00.597Z,1010.12
2017-07-21T02:30:10.510Z,1010.14
2017-07-21T02:31:20.118Z,1010.15
2017-07-21T02:32:30.350Z,1010.12
2017-07-21T02:33:40.254Z,1010.17
2017-07-21T02:34:50.312Z,1010.15
2017-07-21T02:36:00.562Z,1010.17
2017-07-21T02:37:10.169Z,1010.15
2017-07-21T02:38:20.081Z,1010.2
2017-07-21T02:39:30.000Z,1010.24
2017-07-21T02:40:39.921Z,1010.23
2017-07-21T02:41:49.527Z,1010.23
2017-07-21T02:42:59.440Z,1010.23
2017-07-21T02:44:09.045Z,1010.24
2017-07-21T02:45:18.969Z,1010.28
2017-07-21T02:46:28.938Z,1010.24
2017-07-21T02:47:39.150Z,1010.29
2017-07-21T02:48:49.071Z,1010.3
2017-07-21T02:49:59.298Z,1010.25
2017-07-21T02:51:09.543Z,1010.25
2017-07-21T02:52:19.487Z,1010.24
2017-07-21T02:53:29.715Z,1010.24
2017-07-21T02:54:39.626Z,1010.23
2017-07-21T02:55:49.877Z,1010.23
2017-07-21T02:56:59.496Z,1010.29
2017-07-21T02:58:09.741Z,1010.27
2017-07-21T02:59:19.659Z,1010.29
2017-07-21T03:00:29.880Z,1010.28
2017-07-21T03:01:39.498Z,1010.26
2017-07-21T03:02:49.109Z,1010.3
2017-07-21T03:03:58.721Z,1010.27
2017-07-21T03:05:08.639Z,1010.27
2017-07-21T03:06:18.572Z,1010.29
2017-07-21T03:07:28.826Z,1010.24
2017-07-21T03:08:38.138Z,1010.25
2017-07-21T03:09:48.200Z,1010.26
2017-07-21T03:10:58.421Z,1010.24
2017-07-21T03:12:08.663Z,1010.25
2017-07-21T03:13:18.880Z,1010.26
2017-07-21T03:14:28.482Z,1010.3
2017-07-21T03:15:38.703Z,1010.29
2017-07-21T03:16:48.916Z,1010.3
2017-07-21T03:17:58.825Z,1010.29
2017-07-21T03:19:09.074Z,1010.32
2017-07-21T03:20:19.199Z,1010.36
2017-07-21T03:21:28.503Z,1010.36
2017-07-21T03:22:38.416Z,1010.36
2017-07-21T03:23:48.632Z,1010.33
2017-07-21T03:24:58.543Z,1010.36
2017-07-21T03:26:08.497Z,1010.39
2017-07-21T03:27:18.411Z,1010.38
2017-07-21T03:28:28.329Z,1010.4
2017-07-21T03:29:38.238Z,1010.38
2017-07-21T03:30:48.149Z,1010.42
2017-07-21T03:31:57.759Z,1010.39
2017-07-21T03:33:07.658Z,1010.42
2017-07-21T03:34:17.868Z,1010.45
2017-07-21T03:35:27.182Z,1010.46
2017-07-21T03:36:37.414Z,1010.48
2017-07-21T03:37:47.332Z,1010.49
2017-07-21T03:38:56.934Z,1010.52
2017-07-21T03:40:07.156Z,1010.53
2017-07-21T03:41:16.776Z,1010.51
2017-07-21T03:42:26.388Z,1010.48
2017-07-21T03:43:36.311Z,1010.5
2017-07-21T03:44:46.222Z,1010.5
2017-07-21T03:45:56.133Z,1010.48
2017-07-21T03:47:06.341Z,1010.49
2017-07-21T03:48:16.551Z,1010.52
2017-07-21T03:49:26.763Z,1010.54
2017-07-21T03:50:36.695Z,1010.51
2017-07-21T03:51:46.323Z,1010.48
2017-07-21T03:52:56.238Z,1010.52
2017-07-21T03:54:06.486Z,1010.5
2017-07-21T03:55:16.399Z,1010.51
2017-07-21T03:56:26.639Z,1010.5
2017-07-21T03:57:36.561Z,1010.53
2017-07-21T03:58:46.787Z,1010.52
2017-07-21T03:59:56.700Z,1010.54
2017-07-21T04:01:06.630Z,1010.57
2017-07-21T04:02:15.922Z,1010.57
2017-07-21T04:03:26.140Z,1010.56
2017-07-21T04:04:36.359Z,1010.55
2017-07-21T04:05:46.284Z,1010.56
2017-07-21T04:06:55.581Z,1010.58
2017-07-21T04:08:05.185Z,1010.61
2017-07-21T04:09:15.410Z,1010.63
2017-07-21T04:10:24.720Z,1010.61
2017-07-21T04:11:34.938Z,1010.66
2017-07-21T04:12:44.951Z,1010.63
2017-07-21T04:13:55.172Z,1010.63
2017-07-21T04:15:05.096Z,1010.6
2017-07-21T04:16:15.328Z,1010.61
2017-07-21T04:17:25.250Z,1010.6
2017-07-21T04:18:35.236Z,1010.59
2017-07-21T04:19:45.457Z,1010.58
2017-07-21T04:20:55.410Z,1010.59
2017-07-21T04:22:04.722Z,1010.6
2017-07-21T04:23:14.325Z,1010.57
2017-07-21T04:24:23.622Z,1010.61
2017-07-21T04:25:33.680Z,1010.59
2017-07-21T04:26:43.350Z,1010.57
2017-07-21T04:27:53.297Z,1010.58
2017-07-21T04:29:02.909Z,1010.53
2017-07-21T04:30:12.823Z,1010.64
2017-07-21T04:31:23.055Z,1010.61
2017-07-21T04:32:33.279Z,1010.69
2017-07-21T04:33:42.894Z,1010.68
2017-07-21T04:34:53.128Z,1010.68
2017-07-21T04:36:02.723Z,1010.67
2017-07-21T04:37:12.037Z,1010.71
2017-07-21T04:38:21.944Z,1010.66
2017-07-21T04:39:31.567Z,1010.71
2017-07-21T04:40:41.489Z,1010.68
2017-07-21T04:41:51.104Z,1010.7
2017-07-21T04:43:01.341Z,1010.7
2017-07-21T04:44:11.267Z,1010.71
2017-07-21T04:45:21.497Z,1010.69
2017-07-21T04:46:31.430Z,1010.71
2017-07-21T04:47:41.658Z,1010.7
2017-07-21T04:48:51.287Z,1010.73
2017-07-21T04:50:01.266Z,1010.8
2017-07-21T04:51:11.492Z,1010.75
2017-07-21T04:52:21.719Z,1010.82
2017-07-21T04:53:31.650Z,1010.85
2017-07-21T04:54:41.891Z,1010.86
2017-07-21T04:55:51.514Z,1010.85
2017-07-21T04:57:01.739Z,1010.82
2017-07-21T04:58:11.665Z,1010.84
2017-07-21T04:59:21.578Z,1010.87
2017-07-21T05:00:31.191Z,1010.86
2017-07-21T05:01:40.486Z,1010.83
2017-07-21T05:02:50.436Z,1010.81
2017-07-21T05:04:00.654Z,1010.82
2017-07-21T05:05:10.901Z,1010.76
2017-07-21T05:06:21.120Z,1010.74
2017-07-21T05:07:31.044Z,1010.78
2017-07-21T05:08:41.269Z,1010.77
2017-07-21T05:09:50.924Z,1010.73
2017-07-21T05:11:00.266Z,1010.79
2017-07-21T05:12:10.522Z,1010.79
2017-07-21T05:13:20.449Z,1010.76
2017-07-21T05:14:30.361Z,1010.75
2017-07-21T05:15:40.281Z,1010.72
2017-07-21T05:16:49.598Z,1010.73
2017-07-21T05:18:00.058Z,1010.69
2017-07-21T05:19:10.011Z,1010.67
2017-07-21T05:20:20.252Z,1010.67
2017-07-21T05:21:30.495Z,1010.68
2017-07-21T05:22:40.744Z,1010.68
2017-07-21T05:23:50.679Z,1010.71
2017-07-21T05:25:00.622Z,1010.73
2017-07-21T05:26:10.869Z,1010.75
2017-07-21T05:27:20.480Z,1010.73
2017-07-21T05:28:30.435Z,1010.77
2017-07-21T05:29:40.365Z,1010.79
2017-07-21T05:30:50.295Z,1010.77
2017-07-21T05:32:00.520Z,1010.77
2017-07-21T05:33:10.487Z,1010.76
2017-07-21T05:34:20.405Z,1010.75
2017-07-21T05:35:30.636Z,1010.75
2017-07-21T05:36:40.887Z,1010.74
2017-07-21T05:37:50.821Z,1010.73
2017-07-21T05:39:00.175Z,1010.72
2017-07-21T05:40:10.083Z,1010.7
2017-07-21T05:41:20.308Z,1010.71
2017-07-21T05:42:29.918Z,1010.68
2017-07-21T05:43:39.538Z,1010.69
2017-07-21T05:44:49.154Z,1010.68
2017-07-21T05:45:59.387Z,1010.7
2017-07-21T05:47:09.380Z,1010.7
2017-07-21T05:48:19.312Z,1010.75
2017-07-21T05:49:28.906Z,1010.72
2017-07-21T05:50:38.832Z,1010.72
2017-07-21T05:51:48.754Z,1010.73
2017-07-21T05:52:58.988Z,1010.7
2017-07-21T05:54:08.925Z,1010.72
2017-07-21T05:55:18.833Z,1010.74
2017-07-21T05:56:29.067Z,1010.76
2017-07-21T05:57:38.426Z,1010.76
2017-07-21T05:58:48.034Z,1010.77
2017-07-21T05:59:57.944Z,1010.82
2017-07-21T06:01:07.576Z,1010.8
2017-07-21T06:02:17.489Z,1010.81
2017-07-21T06:03:27.406Z,1010.8
2017-07-21T06:04:37.014Z,1010.8
2017-07-21T06:05:47.242Z,1010.82
2017-07-21T06:06:56.860Z,1010.79
2017-07-21T06:08:07.120Z,1010.78
2017-07-21T06:09:17.056Z,1010.8
2017-07-21T06:10:26.515Z,1010.79
2017-07-21T06:11:36.782Z,1010.8
2017-07-21T06:12:46.390Z,1010.76
2017-07-21T06:13:56.641Z,1010.81
2017-07-21T06:15:06.271Z,1010.77
2017-07-21T06:16:16.516Z,1010.82
2017-07-21T06:17:26.453Z,1010.81
2017-07-21T06:18:36.741Z,1010.82
2017-07-21T06:19:46.703Z,1010.77
2017-07-21T06:20:56.611Z,1010.81
2017-07-21T06:22:06.866Z,1010.81
2017-07-21T06:23:16.494Z,1010.82
2017-07-21T06:24:26.412Z,1010.8
2017-07-21T06:25:36.019Z,1010.82
2017-07-21T06:26:45.323Z,1010.79
2017-07-21T06:27:55.242Z,1010.8
2017-07-21T06:29:05.162Z,1010.79
2017-07-21T06:30:15.091Z,1010.78
2017-07-21T06:31:25.333Z,1010.79
2017-07-21T06:32:35.564Z,1010.78
2017-07-21T06:33:45.177Z,1010.78
2017-07-21T06:34:55.096Z,1010.78
2017-07-21T06:36:04.729Z,1010.77
2017-07-21T06:37:14.724Z,1010.76
2017-07-21T06:38:24.397Z,1010.82
2017-07-21T06:39:34.317Z,1010.79
2017-07-21T06:40:44.222Z,1010.76
2017-07-21T06:41:54.453Z,1010.82
2017-07-21T06:43:04.382Z,1010.81
2017-07-21T06:44:14.332Z,1010.81
2017-07-21T06:45:24.564Z,1010.79
2017-07-21T06:46:34.795Z,1010.78
2017-07-21T06:47:44.426Z,1010.81
2017-07-21T06:48:54.654Z,1010.8
2017-07-21T06:50:04.889Z,1010.81
2017-07-21T06:51:15.125Z,1010.79
2017-07-21T06:52:24.758Z,1010.78
2017-07-21T06:53:34.688Z,1010.82
2017-07-21T06:54:43.996Z,1010.8
2017-07-21T06:55:53.616Z,1010.79
2017-07-21T06:57:02.961Z,1010.8
2017-07-21T06:58:12.621Z,1010.81
2017-07-21T06:59:22.558Z,1010.82
2017-07-21T07:00:32.483Z,1010.82
2017-07-21T07:01:42.408Z,1010.82
2017-07-21T07:02:52.049Z,1010.84
2017-07-21T07:04:01.665Z,1010.85
2017-07-21T07:05:11.944Z,1010.82
2017-07-21T07:06:22.174Z,1010.85
2017-07-21T07:07:32.479Z,1010.82
2017-07-21T07:08:42.118Z,1010.83
2017-07-21T07:09:52.047Z,1010.88
2017-07-21T07:11:02.281Z,1010.88
2017-07-21T07:12:12.509Z,1010.87
2017-07-21T07:13:22.442Z,1010.88
2017-07-21T07:14:32.382Z,1010.91
2017-07-21T07:15:42.063Z,1010.9
2017-07-21T07:16:51.677Z,1010.94
2017-07-21T07:18:01.935Z,1010.94
2017-07-21T07:19:11.907Z,1010.95
2017-07-21T07:20:22.130Z,1010.93
2017-07-21T07:21:32.356Z,1010.91
2017-07-21T07:22:42.273Z,1010.94
2017-07-21T07:23:52.235Z,1010.93
2017-07-21T07:25:02.155Z,1010.94
2017-07-21T07:26:12.117Z,1010.94
2017-07-21T07:27:22.046Z,1010.97
2017-07-21T07:28:31.673Z,1010.91
2017-07-21T07:29:41.597Z,1010.9
2017-07-21T07:30:51.203Z,1010.89
2017-07-21T07:32:00.861Z,1010.85
2017-07-21T07:33:10.475Z,1010.91
2017-07-21T07:34:20.413Z,1010.85
2017-07-21T07:35:30.634Z,1010.87
2017-07-21T07:36:40.258Z,1010.85
2017-07-21T07:37:50.499Z,1010.8
2017-07-21T07:39:00.421Z,1010.79
2017-07-21T07:40:10.034Z,1010.83
2017-07-21T07:41:19.950Z,1010.83
2017-07-21T07:42:30.177Z,1010.82
2017-07-21T07:43:39.779Z,1010.83
2017-07-21T07:44:49.390Z,1010.84
2017-07-21T07:45:59.306Z,1010.79
2017-07-21T07:47:08.913Z,1010.79
2017-07-21T07:48:19.136Z,1010.8
2017-07-21T07:49:29.362Z,1010.82
2017-07-21T07:50:39.287Z,1010.78
2017-07-21T07:51:49.205Z,1010.82
2017-07-21T07:52:59.431Z,1010.81
2017-07-21T07:54:08.732Z,1010.79
2017-07-21T07:55:18.659Z,1010.81
2017-07-21T07:56:28.896Z,1010.8
2017-07-21T07:57:38.510Z,1010.79
2017-07-21T07:58:48.418Z,1010.76
2017-07-21T07:59:57.733Z,1010.77
2017-07-21T08:01:07.654Z,1010.78
2017-07-21T08:02:17.578Z,1010.82
2017-07-21T08:03:27.490Z,1010.8
2017-07-21T08:04:37.575Z,1010.76
2017-07-21T08:05:47.819Z,1010.76
2017-07-21T08:06:56.823Z,1010.75
2017-07-21T08:08:06.433Z,1010.73
2017-07-21T08:09:16.664Z,1010.74
2017-07-21T08:10:26.893Z,1010.71
2017-07-21T08:11:36.844Z,1010.75
2017-07-21T08:12:46.457Z,1010.75
2017-07-21T08:13:56.375Z,1010.76
2017-07-21T08:15:06.300Z,1010.75
2017-07-21T08:16:15.907Z,1010.74
2017-07-21T08:17:25.541Z,1010.72
2017-07-21T08:18:35.460Z,1010.73
2017-07-21T08:19:45.688Z,1010.77
2017-07-21T08:20:55.604Z,1010.76
2017-07-21T08:22:05.527Z,1010.73
2017-07-21T08:23:15.780Z,1010.75
2017-07-21T08:24:26.012Z,1010.76
2017-07-21T08:25:35.927Z,1010.7
2017-07-21T08:26:45.836Z,1010.71
2017-07-21T08:27:55.753Z,1010.7
2017-07-21T08:29:05.371Z,1010.74
2017-07-21T08:30:15.611Z,1010.68
2017-07-21T08:31:25.528Z,1010.66
2017-07-21T08:32:35.759Z,1010.68
2017-07-21T08:33:45.748Z,1010.65
2017-07-21T08:34:55.706Z,1010.68
2017-07-21T08:36:05.313Z,1010.65
2017-07-21T08:37:14.959Z,1010.7
2017-07-21T08:38:25.196Z,1010.66
2017-07-21T08:39:35.434Z,1010.66
2017-07-21T08:40:45.056Z,1010.64
2017-07-21T08:41:54.983Z,1010.67
2017-07-21T08:43:05.222Z,1010.64
2017-07-21T08:44:14.843Z,1010.65
2017-07-21T08:45:24.789Z,1010.65
2017-07-21T08:46:34.415Z,1010.6
2017-07-21T08:47:44.031Z,1010.6
2017-07-21T08:48:53.653Z,1010.62
2017-07-21T08:50:03.634Z,1010.63
2017-07-21T08:51:12.970Z,1010.58
2017-07-21T08:52:22.889Z,1010.6
2017-07-21T08:53:33.118Z,1010.59
2017-07-21T08:54:43.044Z,1010.61
2017-07-21T08:55:52.964Z,1010.62
2017-07-21T08:57:02.588Z,1010.59
2017-07-21T08:58:12.820Z,1010.57
2017-07-21T08:59:23.058Z,1010.53
2017-07-21T09:00:33.287Z,1010.53
2017-07-21T09:01:43.241Z,1010.51
2017-07-21T09:02:53.187Z,1010.53
2017-07-21T09:04:02.495Z,1010.56
2017-07-21T09:05:12.758Z,1010.59
2017-07-21T09:06:22.688Z,1010.58
2017-07-21T09:07:33.003Z,1010.57
2017-07-21T09:08:42.628Z,1010.59
2017-07-21T09:09:52.861Z,1010.61
2017-07-21T09:11:03.091Z,1010.59
2017-07-21T09:12:12.727Z,1010.58
2017-07-21T09:13:22.346Z,1010.53
2017-07-21T09:14:32.272Z,1010.56
2017-07-21T09:15:42.185Z,1010.56
2017-07-21T09:16:51.817Z,1010.53
2017-07-21T09:18:01.433Z,1010.51
2017-07-21T09:19:11.668Z,1010.54
2017-07-21T09:20:21.281Z,1010.5
2017-07-21T09:21:30.893Z,1010.48
2017-07-21T09:22:40.820Z,1010.51
2017-07-21T09:23:50.753Z,1010.52
2017-07-21T09:25:00.983Z,1010.51
2017-07-21T09:26:10.593Z,1010.48
2017-07-21T09:27:20.517Z,1010.49
2017-07-21T09:28:30.278Z,1010.47
2017-07-21T09:29:40.520Z,1010.46
2017-07-21T09:30:50.748Z,1010.44
2017-07-21T09:32:00.659Z,1010.4
2017-07-21T09:33:10.574Z,1010.47
2017-07-21T09:34:19.900Z,1010.46
2017-07-21T09:35:29.517Z,1010.48
2017-07-21T09:36:38.845Z,1010.45
2017-07-21T09:37:48.154Z,1010.51
2017-07-21T09:38:58.101Z,1010.49
2017-07-21T09:40:07.753Z,1010.51
2017-07-21T09:41:17.367Z,1010.5
2017-07-21T09:42:27.040Z,1010.48
2017-07-21T09:43:36.949Z,1010.46
2017-07-21T09:44:46.570Z,1010.38
2017-07-21T09:45:56.839Z,1010.39
2017-07-21T09:47:06.756Z,1010.37
2017-07-21T09:48:17.008Z,1010.36
2017-07-21T09:49:27.251Z,1010.32
2017-07-21T09:50:37.192Z,1010.36
2017-07-21T09:51:46.829Z,1010.39
2017-07-21T09:52:56.751Z,1010.35
2017-07-21T09:54:06.667Z,1010.34
2017-07-21T09:55:16.596Z,1010.35
2017-07-21T09:56:26.824Z,1010.3
2017-07-21T09:57:36.759Z,1010.31
2017-07-21T09:58:46.672Z,1010.27
2017-07-21T09:59:56.283Z,1010.27
2017-07-21T10:01:06.223Z,1010.24
2017-07-21T10:02:16.147Z,1010.27
2017-07-21T10:03:26.374Z,1010.22
2017-07-21T10:04:36.301Z,1010.23
2017-07-21T10:05:45.615Z,1010.18
2017-07-21T10:06:55.219Z,1010.21
2017-07-21T10:08:05.455Z,1010.17
2017-07-21T10:09:15.683Z,1010.15
2017-07-21T10:10:25.605Z,1010.14
2017-07-21T10:11:35.215Z,1010.13
2017-07-21T10:12:45.436Z,1010.12
2017-07-21T10:13:55.348Z,1010.13
2017-07-21T10:15:05.262Z,1010.11
2017-07-21T10:16:14.878Z,1010.12
2017-07-21T10:17:24.789Z,1010.11
2017-07-21T10:18:34.116Z,1010.08
2017-07-21T10:19:43.729Z,1010.06
2017-07-21T10:20:53.354Z,1010.03
2017-07-21T10:22:03.294Z,1010.02
2017-07-21T10:23:13.198Z,1010.01
2017-07-21T10:24:22.808Z,1010
2017-07-21T10:25:32.429Z,1010.04
2017-07-21T10:26:42.341Z,1010.01
2017-07-21T10:27:52.292Z,1009.99
2017-07-21T10:29:05.547Z,1009.94
2017-07-21T10:30:15.175Z,1009.95
2017-07-21T10:31:25.113Z,1009.9
2017-07-21T10:32:35.333Z,1009.91
2017-07-21T10:33:44.954Z,1009.89
2017-07-21T10:34:54.903Z,1009.89
2017-07-21T10:36:05.136Z,1009.87
2017-07-21T10:37:15.053Z,1009.83
2017-07-21T10:38:25.122Z,1009.83
2017-07-21T10:39:34.738Z,1009.82
2017-07-21T10:40:44.658Z,1009.83
2017-07-21T10:41:54.576Z,1009.79
2017-07-21T10:43:04.809Z,1009.73
2017-07-21T10:44:14.755Z,1009.78
2017-07-21T10:45:24.971Z,1009.75
2017-07-21T10:46:35.211Z,1009.72
2017-07-21T10:47:45.130Z,1009.73
2017-07-21T10:48:54.748Z,1009.69
2017-07-21T10:50:04.972Z,1009.69
2017-07-21T10:51:15.191Z,1009.69
2017-07-21T10:52:25.115Z,1009.7
2017-07-21T10:53:35.038Z,1009.64
2017-07-21T10:54:44.656Z,1009.67
2017-07-21T10:55:54.897Z,1009.65
2017-07-21T10:57:05.135Z,1009.66
2017-07-21T10:58:15.356Z,1009.63
2017-07-21T10:59:25.581Z,1009.58
2017-07-21T11:00:35.213Z,1009.62
2017-07-21T11:01:43.908Z,1009.62
2017-07-21T11:02:54.134Z,1009.64
2017-07-21T11:04:04.053Z,1009.61
2017-07-21T11:05:13.970Z,1009.59
2017-07-21T11:06:23.891Z,1009.58
2017-07-21T11:07:33.823Z,1009.61
2017-07-21T11:08:43.763Z,1009.54
2017-07-21T11:09:53.374Z,1009.54
2017-07-21T11:11:03.593Z,1009.54
2017-07-21T11:12:13.825Z,1009.54
2017-07-21T11:13:24.051Z,1009.51
2017-07-21T11:14:34.269Z,1009.52
2017-07-21T11:15:44.491Z,1009.51
2017-07-21T11:16:53.794Z,1009.51
2017-07-21T11:18:03.716Z,1009.51
2017-07-21T11:19:13.322Z,1009.5
2017-07-21T11:20:23.245Z,1009.43
2017-07-21T11:21:33.184Z,1009.42
2017-07-21T11:22:42.786Z,1009.41
2017-07-21T11:23:52.711Z,1009.39
2017-07-21T11:25:02.308Z,1009.35
2017-07-21T11:26:11.601Z,1009.33
2017-07-21T11:27:21.547Z,1009.35
2017-07-21T11:28:31.777Z,1009.34
2017-07-21T11:29:41.705Z,1009.34
2017-07-21T11:30:51.982Z,1009.39
2017-07-21T11:32:02.221Z,1009.31
2017-07-21T11:33:11.881Z,1009.33
2017-07-21T11:34:21.498Z,1009.26
2017-07-21T11:35:31.426Z,1009.26
2017-07-21T11:36:41.651Z,1009.28
2017-07-21T11:37:51.572Z,1009.23
2017-07-21T11:39:01.197Z,1009.24
2017-07-21T11:40:11.432Z,1009.22
2017-07-21T11:41:21.420Z,1009.24
2017-07-21T11:42:31.340Z,1009.25
2017-07-21T11:43:41.283Z,1009.19
2017-07-21T11:44:50.618Z,1009.25
2017-07-21T11:46:00.538Z,1009.24
2017-07-21T11:47:10.747Z,1009.22
2017-07-21T11:48:20.663Z,1009.24
2017-07-21T11:49:29.982Z,1009.28
2017-07-21T11:50:39.890Z,1009.24
2017-07-21T11:51:49.826Z,1009.19
2017-07-21T11:52:59.750Z,1009.19
2017-07-21T11:54:09.422Z,1009.17
2017-07-21T11:55:19.351Z,1009.17
2017-07-21T11:56:29.269Z,1009.2
2017-07-21T11:57:39.532Z,1009.22
2017-07-21T11:58:49.785Z,1009.13
2017-07-21T12:00:00.370Z,1009.09
2017-07-21T12:01:09.983Z,1009.11
2017-07-21T12:02:20.228Z,1009.12
2017-07-21T12:03:29.875Z,1009.11
2017-07-21T12:04:39.497Z,1009.06
2017-07-21T12:05:49.904Z,1009.09
2017-07-21T12:07:00.147Z,1009.02
2017-07-21T12:08:10.357Z,1009.05
2017-07-21T12:09:20.570Z,1009
2017-07-21T12:10:30.497Z,1008.94
2017-07-21T12:11:40.585Z,1008.95
2017-07-21T12:12:50.890Z,1008.98
2017-07-21T12:14:00.560Z,1008.97
2017-07-21T12:15:10.509Z,1008.97
2017-07-21T12:16:20.440Z,1008.97
2017-07-21T12:17:30.386Z,1008.94
2017-07-21T12:18:40.293Z,1008.92
2017-07-21T12:19:50.222Z,1008.92
2017-07-21T12:21:00.140Z,1008.89
2017-07-21T12:22:10.365Z,1008.87
2017-07-21T12:23:20.595Z,1008.88
2017-07-21T12:24:30.228Z,1008.89
2017-07-21T12:25:40.143Z,1008.87
2017-07-21T12:26:50.064Z,1008.91
2017-07-21T12:27:59.378Z,1008.91
2017-07-21T12:29:09.289Z,1008.89
2017-07-21T12:30:19.520Z,1008.89
2017-07-21T12:31:29.437Z,1008.92
2017-07-21T12:32:39.380Z,1008.89
2017-07-21T12:33:49.607Z,1008.87
2017-07-21T12:34:59.832Z,1008.88
2017-07-21T12:36:09.744Z,1008.86
2017-07-21T12:37:19.665Z,1008.82
2017-07-21T12:38:29.593Z,1008.75
2017-07-21T12:39:39.831Z,1008.73
2017-07-21T12:40:49.898Z,1008.69
2017-07-21T12:42:12.571Z,1008.71
2017-07-21T12:43:22.180Z,1008.7
2017-07-21T12:44:31.796Z,1008.69
2017-07-21T12:45:41.704Z,1008.65
2017-07-21T12:46:51.915Z,1008.63
2017-07-21T12:48:01.238Z,1008.67
2017-07-21T12:49:11.183Z,1008.65
2017-07-21T12:50:21.095Z,1008.6
2017-07-21T12:51:30.709Z,1008.64
2017-07-21T12:52:40.634Z,1008.65
2017-07-21T12:53:50.905Z,1008.63
2017-07-21T12:55:00.827Z,1008.63
2017-07-21T12:56:10.125Z,1008.68
2017-07-21T12:57:20.350Z,1008.67
2017-07-21T12:58:30.267Z,1008.63
2017-07-21T12:59:40.183Z,1008.6
2017-07-21T13:00:50.135Z,1008.6
2017-07-21T13:02:00.117Z,1008.59
2017-07-21T13:03:10.034Z,1008.54
2017-07-21T13:04:20.282Z,1008.55
2017-07-21T13:05:29.594Z,1008.56
2017-07-21T13:06:39.866Z,1008.54
2017-07-21T13:07:49.791Z,1008.5
2017-07-21T13:09:00.025Z,1008.5
2017-07-21T13:10:10.280Z,1008.5
2017-07-21T13:11:20.221Z,1008.5
2017-07-21T13:12:29.826Z,1008.52
2017-07-21T13:13:39.755Z,1008.48
2017-07-21T13:14:49.981Z,1008.42
2017-07-21T13:15:59.888Z,1008.37
2017-07-21T13:17:09.513Z,1008.41
2017-07-21T13:18:19.121Z,1008.37
2017-07-21T13:19:29.046Z,1008.37
2017-07-21T13:21:48.597Z,1008.36
2017-07-21T13:22:58.227Z,1008.33
2017-07-21T13:24:08.448Z,1008.31
2017-07-21T13:25:17.753Z,1008.33
2017-07-21T13:26:27.362Z,1008.25
2017-07-21T13:27:36.972Z,1008.2
2017-07-21T13:28:46.598Z,1008.2
2017-07-21T13:29:56.505Z,1008.24
2017-07-21T13:31:06.114Z,1008.22
2017-07-21T13:32:15.746Z,1008.2
2017-07-21T13:33:25.362Z,1008.21
2017-07-21T13:34:35.583Z,1008.23
2017-07-21T13:35:45.816Z,1008.19
2017-07-21T13:36:55.740Z,1008.18
2017-07-21T13:38:05.973Z,1008.19
2017-07-21T13:39:16.189Z,1008.21
2017-07-21T13:40:26.418Z,1008.18
2017-07-21T13:41:36.332Z,1008.16
2017-07-21T13:42:46.571Z,1008.1
2017-07-21T13:43:56.506Z,1008.07
2017-07-21T13:45:06.421Z,1008.06
2017-07-21T13:46:16.657Z,1008.09
2017-07-21T13:47:26.577Z,1008.06
2017-07-21T13:48:36.785Z,1008.03
2017-07-21T13:49:46.727Z,1008.05
2017-07-21T13:50:56.959Z,1008.05
2017-07-21T13:52:07.203Z,1008
2017-07-21T13:53:16.810Z,1007.99
2017-07-21T13:54:26.413Z,1007.92
2017-07-21T13:55:36.635Z,1007.89
2017-07-21T13:56:46.232Z,1007.92
2017-07-21T13:57:56.134Z,1007.95
2017-07-21T13:59:06.354Z,1007.96
2017-07-21T14:00:15.951Z,1007.88
2017-07-21T14:01:25.568Z,1007.86
2017-07-21T14:02:35.490Z,1007.86
2017-07-21T14:03:45.717Z,1007.79
2017-07-21T14:04:55.628Z,1007.82
2017-07-21T14:06:05.241Z,1007.79
2017-07-21T14:07:15.150Z,1007.76
2017-07-21T14:08:25.374Z,1007.75
2017-07-21T14:09:35.284Z,1007.73
2017-07-21T14:10:45.576Z,1007.76